»·PEaware :: JST120 NFFN-YSSY

JST120 :: NFFN-YSSY

FLIGHT INFORMATION

Flight Status: Arrived
Operator:
Jetstar Airways
More flights by this operator :: More flights under this callsign
Pilot: Casper O. (9112)
Aircraft: AIRBUS A320
(A320)
More flights by this aircraft type
Origin: NFFN Nadi Intl
Fiji
Destination: YSSY Kingsford Smith Intl
Australia
More flights between these airports :: More routes between these airports
Route: ALPHA NN A579 UBLIN/N0456F360 A579 NATLI DCT ABARB DCT SHARK N774 SY DCT
File this flight plan on PilotEdge
Remarks: PBN / A1B1C1D1L1O1S1 NAV / RNVD1E2A1 DOF / 151027 REG / GFA EET / YBBB0234 RVR / 75 PER / C
Altitude:
(Current/Filed)
34,000ft
Speed:
(Current/Filed)
463kts
Departed: 27-Oct-15 07:03 AM
Arrived: 27-Oct-15 11:26 AM
Distance/Time
Traveled:
1710nm/4:23
Distance/Time
To Go:
Arrived

Flight Plot

Page will automatically refresh every two minutes.


Map Options




Map Legend


Flown Route
Filed Route
Departure Airport
Arrival Airport
Navaid (VOR, NDB)
Fix

Horizontal Profiles

Position Reports

Time Latitude Longitude Heading Altitude Ground
Speed
27-Oct-15 06:41 -17.752325 177.451370 193 73ft 0kts
27-Oct-15 06:42 -17.752325 177.451370 193 73ft 0kts
27-Oct-15 06:43 -17.752325 177.451370 193 73ft 0kts
27-Oct-15 06:44 -17.752325 177.451370 193 73ft 0kts
27-Oct-15 06:45 -17.752325 177.451370 193 73ft 0kts
27-Oct-15 06:46 -17.752325 177.451370 193 73ft 0kts
27-Oct-15 06:47 -17.752325 177.451370 193 73ft 0kts
27-Oct-15 06:48 -17.752325 177.451370 193 73ft 0kts
27-Oct-15 06:49 -17.752325 177.451370 193 73ft 0kts
27-Oct-15 06:50 -17.752325 177.451370 193 73ft 0kts
27-Oct-15 06:51 -17.752325 177.451370 193 73ft 0kts
27-Oct-15 06:52 -17.752325 177.451370 193 73ft 0kts
27-Oct-15 06:53 -17.752325 177.451370 193 73ft 0kts
27-Oct-15 06:54 -17.752325 177.451370 193 73ft 0kts
27-Oct-15 06:55 -17.752325 177.451370 193 73ft 0kts
27-Oct-15 06:56 -17.751647 177.451535 193 73ft 2kts
27-Oct-15 06:57 -17.751531 177.451563 193 73ft 0kts
27-Oct-15 06:58 -17.751531 177.451563 193 73ft 0kts
27-Oct-15 06:59 -17.751352 177.450177 287 73ft 0kts
27-Oct-15 07:00 -17.751333 177.450114 286 73ft 4kts
27-Oct-15 07:01 -17.750070 177.446830 220 73ft 0kts
27-Oct-15 07:02 -17.765586 177.434688 216 281ft 166kts
27-Oct-15 07:03 -17.804731 177.400108 226 2722ft 218kts
27-Oct-15 07:04 -17.847016 177.339962 232 5454ft 275kts
27-Oct-15 07:05 -17.892076 177.274652 232 8940ft 291kts
27-Oct-15 07:06 -17.945332 177.197542 233 10834ft 363kts
27-Oct-15 07:07 -18.007982 177.106980 234 14029ft 393kts
27-Oct-15 07:08 -18.070860 177.015387 235 17276ft 405kts
27-Oct-15 07:09 -18.140210 176.913996 236 20194ft 421kts
27-Oct-15 07:10 -18.210000 176.811817 236 22455ft 437kts
27-Oct-15 07:11 -18.282245 176.705887 236 24355ft 452kts
27-Oct-15 07:12 -18.356060 176.597365 236 26180ft 460kts
27-Oct-15 07:13 -18.431321 176.486437 236 27975ft 463kts
27-Oct-15 07:13 -18.492214 176.396508 236 29624ft 457kts
27-Oct-15 07:15 -18.578531 176.268876 237 31821ft 449kts
27-Oct-15 07:16 -18.651031 176.161414 237 33423ft 446kts
27-Oct-15 07:16 -18.710209 176.073411 238 34021ft 439kts
27-Oct-15 07:17 -18.785900 175.971875 234 34032ft 437kts
27-Oct-15 07:18 -18.863551 175.872844 234 34033ft 435kts
27-Oct-15 07:19 -18.940938 175.774027 234 34035ft 435kts
27-Oct-15 07:20 -19.018115 175.675325 234 34038ft 434kts
27-Oct-15 07:21 -19.095110 175.576696 234 34040ft 434kts
27-Oct-15 07:22 -19.171924 175.478139 234 34042ft 433kts
27-Oct-15 07:23 -19.248578 175.379612 234 34043ft 432kts
27-Oct-15 07:24 -19.324969 175.281267 235 34046ft 431kts
27-Oct-15 07:25 -19.401337 175.182795 235 34049ft 431kts
27-Oct-15 07:26 -19.477623 175.084269 235 34049ft 432kts
27-Oct-15 07:27 -19.553814 174.985704 235 34050ft 432kts
27-Oct-15 07:29 -19.629757 174.887295 235 34052ft 431kts
27-Oct-15 07:30 -19.705591 174.788865 235 34054ft 431kts
27-Oct-15 07:31 -19.781884 174.689672 235 34061ft 431kts
27-Oct-15 07:32 -19.857672 174.590956 235 34064ft 432kts
27-Oct-15 07:33 -19.933992 174.491408 235 34066ft 432kts
27-Oct-15 07:34 -20.009734 174.392454 235 34067ft 430kts
27-Oct-15 07:35 -20.084995 174.293935 236 34070ft 426kts
27-Oct-15 07:36 -20.157699 174.198571 236 34073ft 427kts
27-Oct-15 07:37 -20.234318 174.097935 236 34075ft 427kts
27-Oct-15 07:38 -20.309634 173.998844 236 34078ft 427kts
27-Oct-15 07:39 -20.384080 173.900732 236 34092ft 426kts
27-Oct-15 07:40 -20.458408 173.802604 236 34093ft 425kts
27-Oct-15 07:41 -20.533278 173.703589 236 34096ft 425kts
27-Oct-15 07:42 -20.607341 173.605483 236 34100ft 418kts
27-Oct-15 07:43 -20.679992 173.509029 236 34101ft 416kts
27-Oct-15 07:44 -20.752720 173.412345 237 34103ft 416kts
27-Oct-15 07:45 -20.825305 173.315695 237 34106ft 416kts
27-Oct-15 07:46 -20.897064 173.219994 237 34107ft 415kts
27-Oct-15 07:47 -20.969969 173.122556 237 34109ft 414kts
27-Oct-15 07:48 -21.042083 173.026042 237 34111ft 414kts
27-Oct-15 07:49 -21.114131 172.929447 237 34113ft 414kts
27-Oct-15 07:50 -21.186004 172.832917 237 34113ft 413kts
27-Oct-15 07:51 -21.257807 172.736311 237 34115ft 413kts
27-Oct-15 07:52 -21.329538 172.639636 237 34117ft 413kts
27-Oct-15 07:53 -21.401188 172.542901 237 34118ft 413kts
27-Oct-15 07:54 -21.472795 172.446053 237 34119ft 413kts
27-Oct-15 07:55 -21.544356 172.349097 237 34120ft 413kts
27-Oct-15 07:56 -21.615853 172.252058 237 34121ft 413kts
27-Oct-15 07:57 -21.687261 172.154964 237 34121ft 413kts
27-Oct-15 07:58 -21.758646 172.057729 237 34122ft 413kts
27-Oct-15 07:59 -21.829669 171.960924 238 34124ft 406kts
27-Oct-15 08:00 -21.899452 171.865381 238 34124ft 405kts
27-Oct-15 08:01 -21.969234 171.769819 238 34123ft 404kts
27-Oct-15 08:02 -22.038984 171.674129 238 34125ft 405kts
27-Oct-15 08:03 -22.108590 171.578295 239 34125ft 404kts
27-Oct-15 08:04 -22.177468 171.481958 238 34135ft 405kts
27-Oct-15 08:05 -22.246967 171.385981 238 34135ft 405kts
27-Oct-15 08:06 -22.316436 171.289983 238 34135ft 404kts
27-Oct-15 08:07 -22.385807 171.193931 238 34137ft 404kts
27-Oct-15 08:07 -22.443338 171.114169 238 34137ft 404kts
27-Oct-15 08:08 -22.512540 171.018057 238 34138ft 404kts
27-Oct-15 08:09 -22.581639 170.921905 238 34138ft 404kts
27-Oct-15 08:10 -22.650729 170.825583 238 34137ft 404kts
27-Oct-15 08:11 -22.719703 170.729242 238 34136ft 403kts
27-Oct-15 08:12 -22.788634 170.632783 238 34135ft 403kts
27-Oct-15 08:13 -22.857498 170.536235 238 34137ft 404kts
27-Oct-15 08:14 -22.926316 170.439572 238 34137ft 404kts
27-Oct-15 08:15 -22.995058 170.342833 238 34137ft 404kts
27-Oct-15 08:16 -23.063738 170.245998 238 34138ft 404kts
27-Oct-15 08:17 -23.132336 170.149096 239 34138ft 404kts
27-Oct-15 08:18 -23.200881 170.052085 239 34138ft 403kts
27-Oct-15 08:19 -23.269200 169.955160 238 34139ft 402kts
27-Oct-15 08:20 -23.337354 169.858363 238 34140ft 402kts
27-Oct-15 08:22 -23.405424 169.761480 238 34140ft 402kts
27-Oct-15 08:23 -23.473413 169.664521 238 34125ft 402kts
27-Oct-15 08:24 -23.541366 169.567424 238 34125ft 401kts
27-Oct-15 08:25 -23.609220 169.470280 238 34125ft 401kts
27-Oct-15 08:26 -23.677023 169.373024 239 34126ft 402kts
27-Oct-15 08:27 -23.744769 169.275660 239 34125ft 402kts
27-Oct-15 08:28 -23.812441 169.178212 239 34124ft 401kts
27-Oct-15 08:29 -23.879795 169.081033 239 34123ft 401kts
27-Oct-15 08:30 -23.947580 168.983040 239 34123ft 401kts
27-Oct-15 08:31 -24.015035 168.885321 239 34124ft 400kts
27-Oct-15 08:32 -24.082206 168.787843 239 34124ft 400kts
27-Oct-15 08:33 -24.149225 168.690372 239 34123ft 400kts
27-Oct-15 08:34 -24.216156 168.592848 239 34123ft 399kts
27-Oct-15 08:35 -24.283055 168.495177 239 34123ft 399kts
27-Oct-15 08:36 -24.349884 168.397413 239 34123ft 399kts
27-Oct-15 08:37 -24.416637 168.299564 239 34124ft 399kts
27-Oct-15 08:38 -24.483293 168.201663 239 34125ft 399kts
27-Oct-15 08:39 -24.549909 168.103622 239 34125ft 400kts
27-Oct-15 08:40 -24.616407 168.005557 239 34125ft 400kts
27-Oct-15 08:41 -24.682937 167.907249 239 34125ft 400kts
27-Oct-15 08:42 -24.749377 167.808865 239 34125ft 400kts
27-Oct-15 08:43 -24.815269 167.710298 240 34128ft 399kts
27-Oct-15 08:44 -24.881202 167.611284 239 34129ft 401kts
27-Oct-15 08:45 -24.947554 167.512371 239 34129ft 401kts
27-Oct-15 08:46 -25.013869 167.413377 239 34130ft 400kts
27-Oct-15 08:47 -25.080175 167.314179 239 34131ft 400kts
27-Oct-15 08:48 -25.146451 167.214835 239 34133ft 401kts
27-Oct-15 08:49 -25.212611 167.115445 239 34134ft 401kts
27-Oct-15 08:50 -25.278655 167.016015 239 34136ft 401kts
27-Oct-15 08:51 -25.344631 166.916473 239 34137ft 401kts
27-Oct-15 08:52 -25.410278 166.817219 239 34138ft 400kts
27-Oct-15 08:53 -25.476271 166.717226 239 34139ft 400kts
27-Oct-15 08:54 -25.541911 166.617555 239 34141ft 400kts
27-Oct-15 08:55 -25.607377 166.517940 239 34142ft 399kts
27-Oct-15 08:56 -25.672668 166.418365 239 34143ft 398kts
27-Oct-15 08:57 -25.737874 166.318713 239 34133ft 398kts
27-Oct-15 08:58 -25.802951 166.219044 239 34131ft 397kts
27-Oct-15 08:59 -25.867954 166.119275 239 34132ft 397kts
27-Oct-15 09:00 -25.932868 166.019428 239 34133ft 397kts
27-Oct-15 09:01 -25.998157 165.918762 239 34133ft 404kts
27-Oct-15 09:01 -26.053099 165.833949 239 34134ft 404kts
27-Oct-15 09:02 -26.118866 165.732161 239 34135ft 404kts
27-Oct-15 09:03 -26.184542 165.630286 239 34136ft 404kts
27-Oct-15 09:04 -26.250119 165.528338 239 34138ft 404kts
27-Oct-15 09:05 -26.315666 165.426232 239 34138ft 404kts
27-Oct-15 09:06 -26.380919 165.324313 239 34139ft 404kts
27-Oct-15 09:07 -26.446614 165.221487 239 34139ft 404kts
27-Oct-15 09:08 -26.511792 165.119243 239 34141ft 405kts
27-Oct-15 09:09 -26.577119 165.016551 240 34141ft 405kts
27-Oct-15 09:10 -26.642263 164.913880 240 34142ft 404kts
27-Oct-15 09:11 -26.707324 164.811117 240 34140ft 403kts
27-Oct-15 09:12 -26.772300 164.708254 240 34140ft 404kts
27-Oct-15 09:13 -26.837256 164.605187 240 34142ft 405kts
27-Oct-15 09:14 -26.902181 164.501939 240 34142ft 404kts
27-Oct-15 09:16 -26.966995 164.398623 240 34141ft 404kts
27-Oct-15 09:17 -27.031722 164.295207 240 34142ft 404kts
27-Oct-15 09:18 -27.096337 164.191731 240 34143ft 404kts
27-Oct-15 09:19 -27.160872 164.088140 240 34142ft 403kts
27-Oct-15 09:20 -27.225041 163.984901 240 34143ft 403kts
27-Oct-15 09:21 -27.289217 163.881393 240 34143ft 402kts
27-Oct-15 09:22 -27.353293 163.777813 240 34144ft 402kts
27-Oct-15 09:23 -27.417279 163.674136 240 34144ft 402kts
27-Oct-15 09:24 -27.481142 163.570414 240 34144ft 402kts
27-Oct-15 09:25 -27.544933 163.466563 240 34144ft 402kts
27-Oct-15 09:26 -27.608409 163.362980 240 34151ft 402kts
27-Oct-15 09:27 -27.672231 163.258584 240 34149ft 402kts
27-Oct-15 09:28 -27.735321 163.155139 240 34149ft 402kts
27-Oct-15 09:29 -27.798947 163.050565 240 34152ft 401kts
27-Oct-15 09:30 -27.861707 162.945403 241 34153ft 401kts
27-Oct-15 09:31 -27.924641 162.840827 241 34153ft 401kts
27-Oct-15 09:32 -27.987742 162.736337 241 34153ft 401kts
27-Oct-15 09:33 -28.050554 162.632186 241 34154ft 399kts
27-Oct-15 09:34 -28.113093 162.528115 241 34154ft 398kts
27-Oct-15 09:35 -28.175572 162.423932 241 34156ft 398kts
27-Oct-15 09:36 -28.237844 162.319832 241 34155ft 397kts
27-Oct-15 09:37 -28.300008 162.215657 241 34157ft 398kts
27-Oct-15 09:38 -28.362086 162.111372 241 34157ft 398kts
27-Oct-15 09:39 -28.424091 162.006954 241 34157ft 397kts
27-Oct-15 09:40 -28.485799 161.902775 241 34158ft 398kts
27-Oct-15 09:41 -28.547598 161.798185 241 34158ft 398kts
27-Oct-15 09:42 -28.607990 161.695724 241 34163ft 397kts
27-Oct-15 09:43 -28.670927 161.588671 242 34166ft 397kts
27-Oct-15 09:44 -28.732159 161.484261 242 34166ft 396kts
27-Oct-15 09:45 -28.793685 161.379086 242 34168ft 397kts
27-Oct-15 09:46 -28.854731 161.274469 242 34168ft 396kts
27-Oct-15 09:47 -28.915380 161.170270 242 34170ft 396kts
27-Oct-15 09:48 -28.976959 161.064207 242 34170ft 396kts
27-Oct-15 09:49 -29.038158 160.958530 242 34171ft 397kts
27-Oct-15 09:50 -29.098660 160.853791 242 34178ft 396kts
27-Oct-15 09:51 -29.159652 160.747935 242 34180ft 397kts
27-Oct-15 09:52 -29.220363 160.642297 242 34181ft 396kts
27-Oct-15 09:52 -29.270917 160.554123 242 34199ft 396kts
27-Oct-15 09:53 -29.331470 160.448262 242 34199ft 396kts
27-Oct-15 09:54 -29.391935 160.342283 242 34199ft 396kts
27-Oct-15 09:55 -29.452308 160.236190 242 34201ft 396kts
27-Oct-15 09:56 -29.512579 160.130002 242 34200ft 396kts
27-Oct-15 09:57 -29.572356 160.024411 242 34201ft 396kts
27-Oct-15 09:58 -29.632465 159.917941 242 34202ft 395kts
27-Oct-15 09:59 -29.692446 159.811440 242 34201ft 394kts
27-Oct-15 10:00 -29.752120 159.705204 242 34203ft 394kts
27-Oct-15 10:01 -29.811500 159.599215 242 34203ft 395kts
27-Oct-15 10:02 -29.870998 159.492733 242 34203ft 394kts
27-Oct-15 10:03 -29.930572 159.385835 242 34204ft 395kts
27-Oct-15 10:04 -29.989914 159.279072 242 34204ft 394kts
27-Oct-15 10:05 -30.049202 159.172091 242 34205ft 395kts
27-Oct-15 10:06 -30.108515 159.064840 242 34204ft 395kts
27-Oct-15 10:08 -30.167732 158.957435 242 34206ft 395kts
27-Oct-15 10:09 -30.226797 158.850040 242 34206ft 395kts
27-Oct-15 10:10 -30.285709 158.742613 242 34207ft 395kts
27-Oct-15 10:11 -30.344513 158.635109 242 34206ft 394kts
27-Oct-15 10:12 -30.403151 158.527599 242 34213ft 394kts
27-Oct-15 10:13 -30.461644 158.420088 242 34219ft 393kts
27-Oct-15 10:14 -30.520100 158.312345 242 34220ft 394kts
27-Oct-15 10:15 -30.578430 158.204540 242 34220ft 393kts
27-Oct-15 10:16 -30.636649 158.096648 242 34221ft 394kts
27-Oct-15 10:17 -30.694635 157.988875 242 34221ft 394kts
27-Oct-15 10:18 -30.753143 157.879868 242 34221ft 395kts
27-Oct-15 10:19 -30.811280 157.771236 242 34221ft 396kts
27-Oct-15 10:20 -30.869758 157.661640 242 34221ft 397kts
27-Oct-15 10:21 -30.927867 157.552476 242 34251ft 397kts
27-Oct-15 10:22 -30.986132 157.442691 242 34251ft 397kts
27-Oct-15 10:23 -31.053165 157.338930 233 34252ft 404kts
27-Oct-15 10:24 -31.128759 157.241327 233 34252ft 405kts
27-Oct-15 10:25 -31.203895 157.143837 233 34252ft 404kts
27-Oct-15 10:26 -31.279427 157.045511 233 34252ft 404kts
27-Oct-15 10:27 -31.354613 156.947358 233 34253ft 404kts
27-Oct-15 10:28 -31.429744 156.849011 233 34252ft 404kts
27-Oct-15 10:29 -31.504758 156.750554 233 34253ft 405kts
27-Oct-15 10:30 -31.579266 156.652502 233 34254ft 404kts
27-Oct-15 10:31 -31.654696 156.552973 233 34253ft 404kts
27-Oct-15 10:32 -31.729544 156.453947 233 34254ft 405kts
27-Oct-15 10:33 -31.804324 156.354746 233 34254ft 404kts
27-Oct-15 10:34 -31.878662 156.255871 233 34254ft 403kts
27-Oct-15 10:35 -31.953393 156.156200 233 34260ft 404kts
27-Oct-15 10:36 -32.027903 156.056368 232 34264ft 408kts
27-Oct-15 10:37 -32.103174 155.955636 232 34266ft 409kts
27-Oct-15 10:38 -32.177777 155.855343 232 34267ft 409kts
27-Oct-15 10:39 -32.253298 155.753526 232 34267ft 410kts
27-Oct-15 10:40 -32.328187 155.652289 232 34266ft 409kts
27-Oct-15 10:41 -32.403118 155.550698 232 34267ft 409kts
27-Oct-15 10:42 -32.478388 155.448388 232 34267ft 410kts
27-Oct-15 10:43 -32.553399 155.346129 232 34267ft 411kts
27-Oct-15 10:44 -32.628437 155.243566 232 34268ft 411kts
27-Oct-15 10:45 -32.703357 155.140851 232 34267ft 411kts
27-Oct-15 10:46 -32.778317 155.037820 232 34269ft 411kts
27-Oct-15 10:46 -32.840755 154.951768 232 34268ft 411kts
27-Oct-15 10:47 -32.903296 154.839307 240 34264ft 408kts
27-Oct-15 10:48 -32.964311 154.724740 240 34265ft 409kts
27-Oct-15 10:49 -33.025371 154.610173 240 34266ft 409kts
27-Oct-15 10:50 -33.086314 154.495496 240 34265ft 408kts
27-Oct-15 10:51 -33.147156 154.380640 240 34266ft 409kts
27-Oct-15 10:52 -33.207877 154.265644 240 34267ft 409kts
27-Oct-15 10:53 -33.268503 154.150458 240 34267ft 408kts
27-Oct-15 10:54 -33.328794 154.035541 240 34267ft 408kts
27-Oct-15 10:55 -33.389329 153.919648 239 34267ft 408kts
27-Oct-15 10:56 -33.449795 153.803790 239 34268ft 410kts
27-Oct-15 10:57 -33.509929 153.688077 239 34277ft 409kts
27-Oct-15 10:58 -33.570477 153.571186 239 34286ft 410kts
27-Oct-15 10:59 -33.630717 153.454505 239 34262ft 412kts
27-Oct-15 11:01 -33.689686 153.339819 239 31939ft 394kts
27-Oct-15 11:02 -33.745990 153.229928 239 29437ft 377kts
27-Oct-15 11:03 -33.800879 153.122447 238 25854ft 388kts
27-Oct-15 11:04 -33.857656 153.011213 237 22372ft 386kts
27-Oct-15 11:05 -33.912775 152.902754 236 19307ft 372kts
27-Oct-15 11:06 -33.961560 152.795745 256 16591ft 364kts
27-Oct-15 11:07 -33.963672 152.674610 265 13978ft 358kts
27-Oct-15 11:08 -33.965552 152.555759 265 11467ft 348kts
27-Oct-15 11:09 -33.967303 152.445996 265 10492ft 297kts
27-Oct-15 11:10 -33.968497 152.350451 265 9158ft 281kts
27-Oct-15 11:11 -33.970615 152.255588 265 9000ft 282kts
27-Oct-15 11:12 -33.972851 152.160716 265 9000ft 282kts
27-Oct-15 11:13 -33.975059 152.066141 265 9001ft 283kts
27-Oct-15 11:14 -33.977221 151.970730 265 9001ft 288kts
27-Oct-15 11:15 -33.970279 151.875314 279 8492ft 286kts
27-Oct-15 11:16 -33.955053 151.781758 278 7172ft 280kts
27-Oct-15 11:17 -33.940680 151.690168 278 5897ft 275kts
27-Oct-15 11:18 -33.926576 151.600116 278 4623ft 271kts
27-Oct-15 11:19 -33.912690 151.511719 278 3439ft 274kts
27-Oct-15 11:20 -33.900042 151.429548 277 3183ft 215kts
27-Oct-15 11:21 -33.898183 151.362085 255 2823ft 189kts
27-Oct-15 11:22 -33.911730 151.300053 251 1916ft 187kts
27-Oct-15 11:23 -33.924939 151.243838 251 975ft 158kts
27-Oct-15 11:24 -33.936481 151.195048 253 256ft 147kts
27-Oct-15 11:25 -33.944134 151.162650 169 35ft 3kts
27-Oct-15 11:26 -33.942084 151.166016 73 35ft 23kts
27-Oct-15 11:27 -33.940589 151.172277 70 35ft 2kts
27-Oct-15 11:28 -33.938476 151.177432 74 35ft 11kts
27-Oct-15 11:29 -33.936321 151.178162 1 35ft 6kts
27-Oct-15 11:30 -33.936140 151.177675 283 35ft 0kts

Navigation Log

Ident Type
Flight plan parsing failed, navigation log unavailable